ePrivacy and GPDR Cookie Consent by Cookie Consent
EmailTwitter


Observations de surface / Québec / CYND

Régions: Québec | Canada | États-Unis | Europe | France | UK | Ailleurs
Station
Affichage
Infos & localisation pour CYND | Aide pour décoder les METARs

Observations prises le 2021-10-17 à 16H00 UTC à OTTAWA GATINEAU, QB (CYND)

Etat du ciel: partiellement nuageux.

Température: 12.0 Celsius

Point de rosée: 8.0 Celsius

Humidité relative: 77%

Vents: Sud-ouest à 9 km/h ou 5 noeuds.

Pression au niveau moyen de la mer: 100.65 kilopascals.

Calage altimétrique: 100.61 kilopascals ou 29.71 pouces de mercure.

Visibilité horizontale: 15.00 milles terrestres ou 24.00 kilomètres.

Hauteur du plafond: 732 mètres ( 2400 pieds ).

Observation METAR:

CYND 171600Z 22005KT 200V290 15SM BKN024 BKN099 12/08 A2971 RMK SC5AC2 SLP065=